Time;durP1;ratioP1;P1;durP2;ratioP2;P2;SDS_P1;SDS_P2;PMS_P1;PMS_P2;Temp;Humidity;BMP_temperature;BMP_pressure;BME280_temperature;BME280_humidity;BME280_pressure;Samples;Min_cycle;Max_cycle;Signal;HPM_P1;HPM_P2
2023/06/10 00:01:39;;;;;;;9.40;3.10;;;;;;;12.81;100.00;101495.44;4998355;28;20076;-80
2023/06/10 00:04:04;;;;;;;12.83;3.37;;;;;;;12.82;100.00;101502.47;5017444;28;20034;-79
2023/06/10 00:06:35;;;;;;;11.83;3.50;;;;;;;12.83;100.00;101515.72;4999835;28;20140;-80
2023/06/10 00:09:10;;;;;;;11.82;3.17;;;;;;;12.81;100.00;101511.50;5010010;28;20052;-80
2023/06/10 00:11:38;;;;;;;12.68;3.10;;;;;;;12.75;100.00;101512.97;5006194;28;20041;-80
2023/06/10 00:14:04;;;;;;;9.90;3.00;;;;;;;12.73;100.00;101511.44;5027879;28;20017;-79
2023/06/10 00:16:30;;;;;;;8.40;2.50;;;;;;;12.71;100.00;101516.13;4996437;28;20141;-80
2023/06/10 00:19:00;;;;;;;10.20;3.30;;;;;;;12.65;100.00;101506.88;5013529;28;20062;-79
2023/06/10 00:21:26;;;;;;;12.63;3.38;;;;;;;12.60;100.00;101509.19;5000311;28;20037;-79
2023/06/10 00:23:51;;;;;;;10.43;3.38;;;;;;;12.65;100.00;101518.44;5000841;28;20010;-80
2023/06/10 00:26:16;;;;;;;12.43;2.73;;;;;;;12.63;100.00;101517.75;5009058;28;20481;-80
2023/06/10 00:28:45;;;;;;;16.95;4.20;;;;;;;12.59;100.00;101513.69;5000307;28;20052;-79
2023/06/10 00:31:10;;;;;;;14.55;3.08;;;;;;;12.49;100.00;101499.56;5027159;28;20034;-79
2023/06/10 00:33:36;;;;;;;11.63;3.45;;;;;;;12.53;100.00;101503.63;5000563;28;20419;-80
2023/06/10 00:36:02;;;;;;;16.07;3.63;;;;;;;12.53;100.00;101502.78;5004933;28;20037;-80
2023/06/10 00:38:27;;;;;;;10.30;3.10;;;;;;;12.49;100.00;101506.78;4999598;28;20116;-80
2023/06/10 00:40:53;;;;;;;9.00;2.93;;;;;;;12.48;100.00;101508.63;4999744;28;20422;-80
2023/06/10 00:43:18;;;;;;;12.10;3.07;;;;;;;12.43;100.00;101501.06;4998287;28;20113;-80
2023/06/10 00:45:43;;;;;;;11.80;2.87;;;;;;;12.38;100.00;101494.47;4998680;28;20093;-80
2023/06/10 00:48:12;;;;;;;6.90;2.67;;;;;;;12.36;100.00;101491.97;5012509;28;20231;-80
2023/06/10 00:50:43;;;;;;;7.38;2.97;;;;;;;12.36;100.00;101486.59;5015589;28;20034;-80
2023/06/10 00:53:09;;;;;;;9.77;2.90;;;;;;;12.25;100.00;101474.28;5021055;28;20060;-80
2023/06/10 00:55:35;;;;;;;9.13;3.05;;;;;;;12.28;100.00;101497.25;4998922;28;20017;-80
2023/06/10 00:58:02;;;;;;;9.30;3.72;;;;;;;12.22;100.00;101495.16;5017371;28;20044;-79
2023/06/10 01:00:28;;;;;;;6.47;2.65;;;;;;;12.25;100.00;101500.22;4999292;28;20482;-80
2023/06/10 01:02:53;;;;;;;11.27;2.80;;;;;;;12.20;100.00;101498.03;5000613;28;20045;-80
2023/06/10 01:05:20;;;;;;;11.50;2.80;;;;;;;12.16;100.00;101490.47;5001446;28;20053;-80
2023/06/10 01:08:07;;;;;;;9.25;2.60;;;;;;;12.14;100.00;101495.94;5014071;28;20037;-79
2023/06/10 01:10:38;;;;;;;14.40;3.33;;;;;;;12.09;100.00;101479.53;5023070;28;20025;-80
2023/06/10 01:13:08;;;;;;;13.35;3.38;;;;;;;12.12;100.00;101489.06;5013684;28;20498;-81
2023/06/10 01:15:35;;;;;;;7.00;2.83;;;;;;;12.12;100.00;101487.22;5021961;28;20483;-80
2023/06/10 01:18:03;;;;;;;9.93;2.83;;;;;;;12.08;100.00;101472.50;5010549;28;20128;-79
2023/06/10 01:20:31;;;;;;;7.85;3.80;;;;;;;12.05;100.00;101475.47;5023863;28;20034;-79
2023/06/10 01:22:58;;;;;;;8.85;2.17;;;;;;;12.06;100.00;101479.84;5007441;28;20292;-80
2023/06/10 01:25:29;;;;;;;15.82;4.20;;;;;;;12.00;100.00;101470.56;5013672;28;20037;-79
2023/06/10 01:28:21;;;;;;;10.18;2.47;;;;;;;12.05;100.00;101470.09;5013180;28;20117;-81
2023/06/10 01:31:04;;;;;;;9.27;2.55;;;;;;;12.04;100.00;101474.63;5005250;28;20720;-80
2023/06/10 01:33:33;;;;;;;15.95;3.13;;;;;;;12.04;100.00;101471.94;5017731;28;20273;-80
2023/06/10 01:36:01;;;;;;;10.73;3.03;;;;;;;12.06;100.00;101474.50;5014420;28;20631;-80
2023/06/10 01:38:32;;;;;;;11.38;2.78;;;;;;;12.00;100.00;101465.22;4996274;28;20030;-80
2023/06/10 01:40:58;;;;;;;11.38;2.85;;;;;;;12.00;100.00;101464.38;5001254;28;20037;-80
2023/06/10 01:43:24;;;;;;;10.52;2.65;;;;;;;11.97;100.00;101462.03;5018203;28;20029;-80
2023/06/10 01:45:49;;;;;;;11.73;3.50;;;;;;;11.96;100.00;101455.84;5002820;28;20401;-79
2023/06/10 01:48:15;;;;;;;8.40;2.97;;;;;;;11.96;100.00;101461.19;5031647;28;20693;-80
2023/06/10 01:50:41;;;;;;;8.13;2.85;;;;;;;11.86;100.00;101447.00;5000030;28;20093;-80
2023/06/10 01:53:06;;;;;;;13.70;2.60;;;;;;;11.86;100.00;101459.56;5021092;28;20057;-80
2023/06/10 01:55:32;;;;;;;11.60;2.60;;;;;;;11.78;100.00;101450.47;5018756;28;20080;-79
2023/06/10 01:57:57;;;;;;;10.37;2.80;;;;;;;11.78;100.00;101466.50;5020365;28;20025;-80
2023/06/10 02:00:23;;;;;;;8.27;2.72;;;;;;;11.78;100.00;101463.84;5005159;28;20037;-80
2023/06/10 02:02:48;;;;;;;13.37;2.53;;;;;;;11.77;100.00;101470.16;5018184;28;20030;-79
2023/06/10 02:05:14;;;;;;;12.52;2.60;;;;;;;11.70;100.00;101466.41;5030162;28;20021;-79
2023/06/10 02:07:41;;;;;;;14.20;3.58;;;;;;;11.75;100.00;101476.66;5002105;28;20089;-80
2023/06/10 02:10:07;;;;;;;14.13;3.20;;;;;;;11.69;100.00;101472.78;5018227;28;20092;-79
2023/06/10 02:12:33;;;;;;;9.90;2.97;;;;;;;11.74;100.00;101480.34;5016808;28;20273;-79
2023/06/10 02:14:58;;;;;;;18.08;3.63;;;;;;;11.72;100.00;101467.09;5028221;28;20034;-80
2023/06/10 02:17:24;;;;;;;10.03;2.10;;;;;;;11.65;100.00;101482.09;5000956;28;20014;-79
2023/06/10 02:19:52;;;;;;;14.33;3.03;;;;;;;11.65;100.00;101478.56;5017024;28;20058;-80
2023/06/10 02:22:22;;;;;;;9.00;2.97;;;;;;;11.64;100.00;101484.94;5012405;28;20477;-80
2023/06/10 02:24:47;;;;;;;7.00;2.20;;;;;;;11.63;100.00;101494.75;5020080;28;20026;-80
2023/06/10 02:27:13;;;;;;;9.43;2.40;;;;;;;11.61;100.00;101499.41;5011972;28;20391;-79
2023/06/10 02:29:38;;;;;;;7.68;2.92;;;;;;;11.57;100.00;101500.72;5001453;28;20029;-79
2023/06/10 02:32:04;;;;;;;8.37;2.60;;;;;;;11.57;100.00;101485.53;5019137;28;20037;-80
2023/06/10 02:34:30;;;;;;;5.47;2.90;;;;;;;11.61;100.00;101492.25;5001447;28;20040;-78
2023/06/10 02:36:57;;;;;;;12.80;2.63;;;;;;;11.56;100.00;101486.50;5001623;28;20038;-80
2023/06/10 02:39:22;;;;;;;12.85;2.58;;;;;;;11.55;100.00;101497.38;5000434;28;20029;-80
2023/06/10 02:41:48;;;;;;;7.15;2.40;;;;;;;11.52;100.00;101494.97;4999657;28;20061;-79
2023/06/10 02:44:15;;;;;;;9.52;2.30;;;;;;;11.61;100.00;101513.66;5031955;23;20067;-78
2023/06/10 02:46:41;;;;;;;9.43;2.50;;;;;;;11.60;100.00;101511.13;5010512;28;20117;-78
2023/06/10 02:49:07;;;;;;;8.48;2.72;;;;;;;11.59;100.00;101501.44;5010066;28;20034;-79
2023/06/10 02:51:34;;;;;;;7.90;2.13;;;;;;;11.57;100.00;101506.91;5034256;28;20033;-78
2023/06/10 02:54:01;;;;;;;10.98;3.00;;;;;;;11.56;100.00;101499.03;5025503;28;20026;-78
2023/06/10 02:56:27;;;;;;;12.87;2.87;;;;;;;11.51;100.00;101490.63;5011825;28;20040;-78
2023/06/10 02:58:54;;;;;;;9.65;2.10;;;;;;;11.50;100.00;101495.13;5009020;28;20036;-78
2023/06/10 03:01:20;;;;;;;8.07;2.63;;;;;;;11.47;100.00;101484.75;5012764;28;20025;-78
2023/06/10 03:03:58;;;;;;;9.70;2.00;;;;;;;11.51;100.00;101490.63;5010185;28;20112;-78
2023/06/10 03:06:24;;;;;;;7.70;2.28;;;;;;;11.49;100.00;101487.25;5029781;28;20610;-78
2023/06/10 03:08:52;;;;;;;8.15;1.90;;;;;;;11.51;100.00;101490.63;5011406;28;20032;-78
2023/06/10 03:11:19;;;;;;;10.90;3.08;;;;;;;11.50;100.00;101486.28;5011915;28;20029;-78
2023/06/10 03:13:45;;;;;;;8.80;2.15;;;;;;;11.50;100.00;101486.28;5016521;28;20033;-78
2023/06/10 03:16:14;;;;;;;9.75;2.30;;;;;;;11.49;100.00;101481.91;5044886;28;20053;-78
2023/06/10 03:18:40;;;;;;;12.13;2.63;;;;;;;11.44;100.00;101476.19;5032120;28;20025;-78
2023/06/10 03:21:08;;;;;;;5.32;2.35;;;;;;;11.55;100.00;101479.47;5034258;28;20036;-79
2023/06/10 03:23:34;;;;;;;14.38;3.13;;;;;;;11.58;100.00;101494.38;5033783;28;20017;-77
2023/06/10 03:26:00;;;;;;;10.18;2.45;;;;;;;11.62;100.00;101496.59;5029600;28;20670;-78
2023/06/10 03:28:26;;;;;;;10.50;2.40;;;;;;;11.60;100.00;101497.75;5034025;28;20067;-78
2023/06/10 03:30:51;;;;;;;15.05;2.85;;;;;;;11.57;100.00;101490.03;5030899;28;20185;-77
2023/06/10 03:33:18;;;;;;;11.00;2.67;;;;;;;11.65;100.00;101508.00;5025639;28;20394;-78
2023/06/10 03:35:44;;;;;;;11.52;3.58;;;;;;;11.60;100.00;101506.59;5020869;28;20267;-78
2023/06/10 03:38:11;;;;;;;6.35;2.17;;;;;;;11.64;100.00;101512.50;5044968;28;20550;-78
2023/06/10 03:40:36;;;;;;;10.32;3.13;;;;;;;11.70;100.00;101516.41;5016307;28;20029;-78
2023/06/10 03:43:03;;;;;;;6.57;2.25;;;;;;;11.71;100.00;101504.72;5011353;28;20038;-77
2023/06/10 03:45:29;;;;;;;7.40;2.50;;;;;;;11.75;100.00;101512.31;5028549;28;20025;-78
2023/06/10 03:47:56;;;;;;;;;;;;;;;11.80;100.00;101507.34;5027665;28;20025;-78
2023/06/10 03:50:26;;;;;;;8.75;3.25;;;;;;;11.82;100.00;101499.13;5013888;28;19917;-78
2023/06/10 03:52:51;;;;;;;9.33;3.03;;;;;;;11.88;100.00;101498.56;5007026;28;20076;-78
2023/06/10 03:55:21;;;;;;;9.93;3.28;;;;;;;11.99;100.00;101498.34;5047000;28;20492;-78
2023/06/10 03:57:49;;;;;;;12.57;2.80;;;;;;;12.08;100.00;101499.25;5025740;28;20128;-77
2023/06/10 04:00:16;;;;;;;9.13;1.95;;;;;;;12.17;100.00;101498.31;5034123;28;20021;-78
2023/06/10 04:02:45;;;;;;;11.18;2.35;;;;;;;12.20;100.00;101481.13;5026219;28;20132;-78
2023/06/10 04:05:12;;;;;;;10.25;2.05;;;;;;;12.32;100.00;101479.88;5010226;28;20028;-77
2023/06/10 04:07:40;;;;;;;10.38;2.20;;;;;;;12.38;100.00;101483.75;5015520;28;20033;-78
2023/06/10 04:10:07;;;;;;;10.35;2.78;;;;;;;12.43;100.00;101476.09;5026079;28;20029;-78
2023/06/10 04:12:32;;;;;;;10.50;2.20;;;;;;;12.50;100.00;101461.06;5030928;28;20482;-78
2023/06/10 04:14:58;;;;;;;14.63;2.60;;;;;;;12.54;100.00;101461.59;5023614;28;20026;-78
2023/06/10 04:17:24;;;;;;;10.48;1.77;;;;;;;12.67;100.00;101462.84;5010731;28;20170;-79
2023/06/10 04:19:50;;;;;;;8.67;2.17;;;;;;;12.84;100.00;101460.28;5014750;28;20026;-78
2023/06/10 04:22:17;;;;;;;9.98;2.30;;;;;;;12.88;100.00;101448.25;5027830;28;20029;-78
2023/06/10 04:24:43;;;;;;;11.05;2.45;;;;;;;12.98;100.00;101454.31;5031402;28;20013;-78
2023/06/10 04:27:10;;;;;;;9.15;2.35;;;;;;;12.89;100.00;101425.78;5028018;28;20029;-78
2023/06/10 04:29:36;;;;;;;;;;;;;;;13.12;100.00;101449.34;5026244;28;20107;-78
2023/06/10 04:32:01;;;;;;;;;;;;;;;13.27;100.00;101434.28;5013573;28;20354;-78
2023/06/10 04:34:27;;;;;;;;;;;;;;;13.48;100.00;101434.69;5017854;28;19917;-78
2023/06/10 04:36:53;;;;;;;7.78;2.38;;;;;;;13.52;100.00;101414.59;5015692;28;19920;-77
2023/06/10 04:39:19;;;;;;;5.72;1.80;;;;;;;13.56;100.00;101401.72;5024833;28;20025;-77
2023/06/10 04:41:46;;;;;;;16.42;2.90;;;;;;;13.69;100.00;101401.19;5023146;28;20029;-78
2023/06/10 04:44:13;;;;;;;6.10;2.00;;;;;;;13.69;100.00;101390.47;5042976;28;20495;-78
2023/06/10 04:46:39;;;;;;;11.52;2.72;;;;;;;13.78;100.00;101389.47;5016787;28;20032;-78
2023/06/10 04:49:05;;;;;;;9.47;3.17;;;;;;;13.82;100.00;101385.44;5014065;28;20030;-79
2023/06/10 04:51:31;;;;;;;9.50;1.70;;;;;;;14.01;100.00;101388.78;5048334;28;20065;-77
2023/06/10 04:53:57;;;;;;;9.88;2.42;;;;;;;14.10;100.00;101374.34;5028140;28;20116;-78
2023/06/10 04:56:23;;;;;;;8.50;1.80;;;;;;;14.21;100.00;101365.94;5038478;28;20486;-78
2023/06/10 04:58:49;;;;;;;8.82;2.22;;;;;;;14.32;100.00;101353.97;5051641;28;20025;-78
2023/06/10 05:01:17;;;;;;;12.23;2.15;;;;;;;14.51;100.00;101350.88;5031477;28;20038;-78
2023/06/10 05:03:43;;;;;;;8.40;1.95;;;;;;;14.56;100.00;101331.59;5026162;28;20079;-77
2023/06/10 05:06:08;;;;;;;8.97;1.70;;;;;;;14.75;100.00;101325.81;5019387;28;20437;-78
2023/06/10 05:08:33;;;;;;;10.07;2.13;;;;;;;14.81;100.00;101301.91;5028059;28;20037;-79
2023/06/10 05:10:59;;;;;;;10.30;2.27;;;;;;;15.01;100.00;101296.91;5044540;28;20144;-78
2023/06/10 05:13:24;;;;;;;6.33;2.13;;;;;;;15.10;100.00;101280.56;5036573;28;20030;-79
2023/06/10 05:15:49;;;;;;;9.17;2.33;;;;;;;15.22;100.00;101248.72;5029690;28;20033;-79
2023/06/10 05:18:15;;;;;;;6.47;1.73;;;;;;;15.53;100.00;101264.72;5016973;28;20053;-78
2023/06/10 05:20:40;;;;;;;10.83;2.40;;;;;;;15.67;100.00;101232.66;5033680;28;20065;-78
2023/06/10 05:23:06;;;;;;;14.20;2.20;;;;;;;15.89;100.00;101204.81;5049916;28;20041;-79
2023/06/10 05:25:32;;;;;;;7.55;2.10;;;;;;;15.90;100.00;101184.97;5029482;28;20025;-79
2023/06/10 05:27:58;;;;;;;3.85;2.00;;;;;;;16.03;100.00;101139.34;5011221;28;20037;-79
2023/06/10 05:30:24;;;;;;;6.05;2.10;;;;;;;16.41;100.00;101128.38;5030716;28;20477;-78
2023/06/10 05:32:51;;;;;;;11.38;3.10;;;;;;;16.48;100.00;101106.88;5034710;28;20095;-79
2023/06/10 05:35:17;;;;;;;11.60;2.90;;;;;;;17.20;100.00;101094.22;5009642;28;20049;-79
2023/06/10 05:37:43;;;;;;;15.27;2.60;;;;;;;18.20;100.00;101025.28;5016111;28;20056;-79
2023/06/10 05:40:08;;;;;;;;;;;;;;;18.78;100.00;100838.06;5024493;28;20034;-79
2023/06/10 05:42:34;;;;;;;6.53;2.28;;;;;;;19.56;100.00;100805.31;5036275;28;19913;-78
2023/06/10 05:44:59;;;;;;;8.67;2.17;;;;;;;20.14;100.00;100643.47;5034269;28;20095;-79
2023/06/10 05:47:25;;;;;;;7.13;2.17;;;;;;;18.30;100.00;100263.59;5032605;28;20091;-78
2023/06/10 05:49:51;;;;;;;9.97;2.37;;;;;;;19.39;100.00;100691.34;5010552;28;20040;-78
2023/06/10 05:52:17;;;;;;;8.15;1.73;;;;;;;19.53;100.00;100458.38;5047295;28;20358;-78
2023/06/10 05:54:42;;;;;;;10.57;2.00;;;;;;;19.26;100.00;100585.06;5029195;28;20087;-78
2023/06/10 05:57:08;;;;;;;10.63;2.80;;;;;;;19.47;100.00;100564.84;5051749;28;20084;-79
2023/06/10 05:59:33;;;;;;;9.45;2.40;;;;;;;19.67;100.00;100591.72;5031160;28;20030;-79
2023/06/10 06:01:59;;;;;;;12.15;2.45;;;;;;;19.94;100.00;100502.81;5033484;28;20034;-79
2023/06/10 06:04:24;;;;;;;9.20;2.67;;;;;;;20.49;100.00;100463.84;5036687;28;20029;-79
2023/06/10 06:06:49;;;;;;;10.33;2.20;;;;;;;20.72;98.51;100499.13;5038061;28;20062;-78
2023/06/10 06:09:15;;;;;;;7.50;2.63;;;;;;;20.90;96.45;100465.59;5039124;28;20537;-78
2023/06/10 06:11:41;;;;;;;12.70;2.47;;;;;;;21.65;94.06;100493.78;5032666;28;20112;-78
2023/06/10 06:14:06;;;;;;;7.85;1.73;;;;;;;21.07;91.11;100279.28;5025842;28;20042;-79
2023/06/10 06:16:32;;;;;;;4.77;2.30;;;;;;;21.41;89.86;100335.56;5027477;28;20072;-78
2023/06/10 06:18:57;;;;;;;6.15;1.98;;;;;;;21.00;90.78;100416.16;5038884;28;20291;-76
2023/06/10 06:21:23;;;;;;;12.17;2.03;;;;;;;20.18;92.80;100463.06;5028991;28;20036;-76
2023/06/10 06:23:48;;;;;;;12.18;2.25;;;;;;;19.56;96.79;100669.94;5004850;28;20096;-76
2023/06/10 06:26:14;;;;;;;12.27;2.00;;;;;;;19.28;97.24;100667.69;5041188;28;20028;-76
2023/06/10 06:28:39;;;;;;;14.27;2.85;;;;;;;20.05;96.60;100745.94;5008135;28;20179;-76
2023/06/10 06:31:05;;;;;;;8.27;2.50;;;;;;;19.28;95.73;100542.38;5032943;28;20034;-76
2023/06/10 06:33:30;;;;;;;6.60;2.03;;;;;;;21.14;94.63;100872.75;5008414;28;20026;-76
2023/06/10 06:35:56;;;;;;;7.88;1.65;;;;;;;19.69;91.93;100425.25;5032572;28;20029;-78
2023/06/10 06:38:22;;;;;;;5.38;1.90;;;;;;;19.15;94.96;100536.06;5041780;28;20036;-78
2023/06/10 06:40:47;;;;;;;6.88;2.17;;;;;;;19.76;97.41;100862.09;5020468;28;20025;-78
2023/06/10 06:43:13;;;;;;;6.25;2.20;;;;;;;20.79;93.54;100773.00;5043249;28;20075;-78
2023/06/10 06:45:57;;;;;;;7.50;3.40;;;;;;;21.04;90.91;100651.56;5021319;28;20030;-78
2023/06/10 06:48:22;;;;;;;6.32;2.20;;;;;;;21.43;87.88;100569.69;5037335;28;20029;-78
2023/06/10 06:50:48;;;;;;;9.37;2.37;;;;;;;22.07;86.79;100668.28;5033277;28;20028;-75
2023/06/10 06:53:13;;;;;;;11.70;2.20;;;;;;;21.16;85.97;100458.84;5031829;28;20024;-76
2023/06/10 06:55:39;;;;;;;11.80;2.20;;;;;;;20.44;86.45;100432.00;5034196;28;20367;-76
2023/06/10 06:58:05;;;;;;;6.07;2.22;;;;;;;21.86;84.92;100647.19;5029983;28;20029;-76
2023/06/10 07:00:31;;;;;;;5.87;2.17;;;;;;;21.33;86.50;100689.72;5027716;28;20020;-75
2023/06/10 07:02:57;;;;;;;6.55;2.85;;;;;;;21.88;86.11;100792.63;4998068;28;20038;-76
2023/06/10 07:05:23;;;;;;;6.67;2.50;;;;;;;22.19;83.82;100656.56;5033961;28;20086;-76
2023/06/10 07:07:54;;;;;;;14.98;3.08;;;;;;;21.14;82.90;100389.56;5039759;28;20033;-75
2023/06/10 07:10:21;;;;;;;7.20;2.92;;;;;;;20.38;85.40;100479.03;5039203;28;20038;-75
2023/06/10 07:12:47;;;;;;;10.15;2.63;;;;;;;19.46;90.01;100699.41;5016080;28;20030;-76
2023/06/10 07:15:12;;;;;;;8.48;2.30;;;;;;;20.48;89.61;100858.91;5029552;28;20481;-78
2023/06/10 07:17:38;;;;;;;9.23;2.67;;;;;;;21.05;87.59;100810.66;5030876;28;20028;-78
2023/06/10 07:20:04;;;;;;;11.90;2.53;;;;;;;20.72;86.18;100626.63;5039457;28;20045;-78
2023/06/10 07:22:29;;;;;;;6.30;2.15;;;;;;;21.28;85.51;100705.88;5035992;28;20024;-78
2023/06/10 07:24:55;;;;;;;7.87;2.63;;;;;;;19.78;86.90;100531.38;5037777;28;20030;-79
2023/06/10 07:27:20;;;;;;;6.07;2.47;;;;;;;19.64;91.12;100787.13;5023810;28;20021;-79
2023/06/10 07:29:46;;;;;;;7.67;2.27;;;;;;;19.94;93.90;101044.72;5018654;28;20458;-78
2023/06/10 07:32:11;;;;;;;10.67;2.27;;;;;;;20.40;91.23;100927.81;5036952;28;20032;-78
2023/06/10 07:34:36;;;;;;;6.43;2.30;;;;;;;20.43;91.78;100964.50;5041613;28;20041;-78
2023/06/10 07:37:02;;;;;;;12.53;2.23;;;;;;;20.36;89.42;100746.81;5035371;28;20037;-78
2023/06/10 07:39:27;;;;;;;9.67;2.20;;;;;;;21.36;89.34;100990.69;5043574;28;20041;-78
2023/06/10 07:41:53;;;;;;;13.13;3.00;;;;;;;21.41;87.17;100803.47;5034968;28;20726;-78
2023/06/10 07:44:19;;;;;;;;;;;;;;;22.04;84.31;100733.19;5041611;28;20053;-76
2023/06/10 07:46:45;;;;;;;8.82;3.33;;;;;;;20.18;86.49;100555.22;5036172;28;19999;-79
2023/06/10 07:49:10;;;;;;;9.93;2.50;;;;;;;21.56;87.61;100957.84;5054410;28;20068;-78
2023/06/10 07:51:36;;;;;;;9.77;2.77;;;;;;;21.16;84.75;100631.75;5017368;28;20132;-78
2023/06/10 07:54:01;;;;;;;9.85;2.50;;;;;;;19.98;88.34;100672.84;5033195;28;20037;-78
2023/06/10 07:56:27;;;;;;;13.25;3.35;;;;;;;19.71;91.24;100821.25;5041465;28;20037;-79
2023/06/10 07:58:52;;;;;;;11.57;2.70;;;;;;;20.49;91.38;100985.31;5043585;28;20108;-79
2023/06/10 08:01:18;;;;;;;11.03;2.40;;;;;;;20.77;91.96;101096.13;5017138;28;20068;-78
2023/06/10 08:03:43;;;;;;;8.73;3.77;;;;;;;20.48;89.69;100842.63;5019898;28;20029;-77
2023/06/10 08:06:11;;;;;;;15.25;2.58;;;;;;;20.01;91.16;100842.28;5034269;28;20045;-78
2023/06/10 08:08:41;;;;;;;7.22;2.10;;;;;;;20.59;88.33;100763.25;5032601;28;20025;-77
2023/06/10 08:11:07;;;;;;;7.65;3.13;;;;;;;20.20;90.94;100852.09;5044736;28;20040;-78
2023/06/10 08:13:32;;;;;;;12.23;2.20;;;;;;;19.94;90.04;100717.69;5038283;28;20018;-78
2023/06/10 08:15:58;;;;;;;9.83;3.30;;;;;;;19.77;91.82;100814.97;5010939;28;20037;-78
2023/06/10 08:18:23;;;;;;;11.13;2.47;;;;;;;20.33;93.31;101057.19;5017485;28;20416;-79
2023/06/10 08:20:48;;;;;;;8.70;3.10;;;;;;;20.80;91.86;101040.56;5031017;28;20059;-78
2023/06/10 08:23:14;;;;;;;14.57;3.60;;;;;;;20.51;91.94;100987.78;5035894;28;20175;-78
2023/06/10 08:25:39;;;;;;;8.13;2.65;;;;;;;21.30;89.79;100986.16;5012012;28;20036;-78
2023/06/10 08:28:05;;;;;;;7.33;2.43;;;;;;;22.13;87.58;101017.25;5015157;28;20421;-79
2023/06/10 08:30:30;;;;;;;7.07;2.22;;;;;;;22.58;85.78;100954.16;5033985;28;20029;-78
2023/06/10 08:32:56;;;;;;;7.43;2.20;;;;;;;22.67;83.43;100816.69;5034364;28;20033;-78
2023/06/10 08:35:21;;;;;;;14.00;2.50;;;;;;;23.04;82.35;100810.91;5031528;28;20132;-77
2023/06/10 08:37:46;;;;;;;11.47;2.87;;;;;;;23.35;79.56;100656.19;5029774;28;20018;-76
2023/06/10 08:40:12;;;;;;;9.63;3.10;;;;;;;21.71;78.07;100143.19;5050580;28;20034;-75
2023/06/10 08:42:50;;;;;;;8.57;3.00;;;;;;;22.71;81.20;100768.88;5028201;28;20636;-74
2023/06/10 08:45:18;;;;;;;9.45;2.75;;;;;;;22.44;79.08;100504.75;5039856;23;20067;-79
2023/06/10 08:47:45;;;;;;;10.50;3.08;;;;;;;21.95;82.07;100689.25;5049357;28;20017;-80
2023/06/10 08:50:10;;;;;;;9.73;3.92;;;;;;;23.07;81.17;100880.38;5049702;28;20083;-78
2023/06/10 08:52:37;;;;;;;9.00;2.78;;;;;;;22.66;79.93;100673.53;5050099;28;20025;-79
2023/06/10 08:55:08;;;;;;;11.50;3.65;;;;;;;21.53;80.15;100414.25;5049682;28;20051;-79
2023/06/10 08:57:33;;;;;;;9.30;2.88;;;;;;;20.34;83.55;100466.97;5050311;28;20036;-79
2023/06/10 08:59:59;;;;;;;14.70;4.10;;;;;;;20.08;87.31;100742.75;5043262;28;20028;-79
2023/06/10 09:02:25;;;;;;;10.13;2.50;;;;;;;20.44;91.92;101137.03;5033000;28;20513;-80
2023/06/10 09:04:51;;;;;;;14.27;2.90;;;;;;;21.79;85.90;100929.91;5034624;28;20017;-79
2023/06/10 09:07:17;;;;;;;11.05;2.58;;;;;;;20.97;86.09;100721.41;5046523;28;20107;-79
2023/06/10 09:09:44;;;;;;;10.60;2.83;;;;;;;21.29;87.44;100927.47;5033261;28;20507;-79
2023/06/10 09:12:10;;;;;;;11.65;3.25;;;;;;;21.23;87.95;100958.25;5050991;28;20275;-79
2023/06/10 09:14:36;;;;;;;10.63;3.53;;;;;;;21.37;86.44;100883.69;5049111;28;20504;-79
2023/06/10 09:17:03;;;;;;;11.23;2.70;;;;;;;22.52;84.89;100987.75;5046970;28;20036;-79
2023/06/10 09:19:29;;;;;;;9.57;2.67;;;;;;;22.42;83.70;100854.22;5050288;28;20021;-79
2023/06/10 09:21:55;;;;;;;7.68;2.67;;;;;;;23.51;80.48;100843.34;5050368;28;20035;-78
2023/06/10 09:24:24;;;;;;;9.88;2.88;;;;;;;23.33;76.82;100473.94;5032514;28;20089;-79
2023/06/10 09:26:50;;;;;;;9.25;2.72;;;;;;;23.64;78.10;100743.25;5035948;28;20037;-79
2023/06/10 09:29:17;;;;;;;8.05;2.70;;;;;;;21.48;77.61;100157.81;5049736;28;20020;-79
2023/06/10 09:31:43;;;;;;;;;;;;;;;22.43;81.73;100864.03;5052259;28;20087;-79
2023/06/10 09:34:10;;;;;;;6.93;2.97;;;;;;;22.13;78.39;100468.06;5050706;28;19924;-79
2023/06/10 09:36:36;;;;;;;14.00;3.20;;;;;;;21.13;81.04;100425.94;5048585;28;20086;-79
2023/06/10 09:39:01;;;;;;;;;;;;;;;23.00;81.27;100929.53;5034432;28;20584;-79
2023/06/10 09:41:39;;;;;;;8.10;2.78;;;;;;;22.75;77.80;100546.88;5049031;28;20146;-79
2023/06/10 09:44:15;;;;;;;10.52;2.65;;;;;;;22.29;80.81;100784.63;5046820;28;20093;-79
2023/06/10 09:46:41;;;;;;;9.23;2.55;;;;;;;22.26;78.82;100541.16;5036013;28;20467;-79
2023/06/10 09:49:06;;;;;;;13.32;3.42;;;;;;;22.73;79.64;100766.75;5044139;28;20489;-79
2023/06/10 09:51:32;;;;;;;12.53;2.80;;;;;;;23.20;79.27;100862.91;5049579;28;20466;-79
2023/06/10 09:53:58;;;;;;;5.75;2.13;;;;;;;23.58;75.12;100484.31;5050148;28;20113;-79
2023/06/10 09:56:36;;;;;;;14.80;3.17;;;;;;;21.75;79.40;100518.47;5050450;28;20148;-80
2023/06/10 09:59:04;;;;;;;8.35;2.72;;;;;;;23.07;79.07;100813.13;5047897;28;20045;-79
2023/06/10 10:01:30;;;;;;;11.40;2.85;;;;;;;23.65;77.13;100758.53;5040535;28;20009;-79
2023/06/10 10:03:56;;;;;;;;;;;;;;;22.99;75.63;100459.59;5050979;28;20292;-79
2023/06/10 10:06:21;;;;;;;9.25;2.53;;;;;;;23.52;76.74;100741.44;5037120;28;20007;-79
2023/06/10 10:08:48;;;;;;;17.00;3.13;;;;;;;22.81;75.30;100389.13;5051625;28;20041;-80
2023/06/10 10:11:19;;;;;;;4.75;2.30;;;;;;;24.44;75.54;100835.53;5053898;28;20686;-79
2023/06/10 10:13:50;;;;;;;6.10;3.17;;;;;;;24.42;72.90;100573.00;5052100;28;20033;-79
2023/06/10 10:16:40;;;;;;;10.00;2.70;;;;;;;24.73;70.81;100476.94;5039209;28;20029;-80
2023/06/10 10:19:20;;;;;;;8.20;2.75;;;;;;;23.74;71.99;100320.97;5053648;28;20398;-80
2023/06/10 10:22:03;;;;;;;10.30;3.40;;;;;;;23.86;71.63;100321.66;5060357;28;20032;-79
2023/06/10 10:24:38;;;;;;;11.13;2.75;;;;;;;24.53;69.76;100325.63;5054233;28;20035;-80
2023/06/10 10:27:17;;;;;;;14.57;3.25;;;;;;;24.93;71.21;100612.75;5050802;28;20121;-79
2023/06/10 10:29:47;;;;;;;11.93;2.42;;;;;;;24.82;70.25;100487.09;5048446;28;20040;-79
2023/06/10 10:32:14;;;;;;;9.10;2.45;;;;;;;25.52;68.35;100467.78;5050526;28;20032;-78
2023/06/10 10:34:49;;;;;;;15.82;3.20;;;;;;;25.36;66.78;100218.28;5050258;28;20039;-80
2023/06/10 10:37:14;;;;;;;8.10;2.72;;;;;;;25.81;66.62;100398.94;5051364;28;20077;-79
2023/06/10 10:39:39;;;;;;;8.47;2.67;;;;;;;26.33;66.20;100456.13;5044043;28;20271;-79
2023/06/10 10:42:09;;;;;;;8.15;2.75;;;;;;;26.59;64.48;100365.81;5051214;28;20283;-79
2023/06/10 10:44:35;;;;;;;8.23;2.42;;;;;;;26.08;65.26;100344.81;5051458;28;20052;-80
2023/06/10 10:47:02;;;;;;;;;;;;;;;26.73;64.16;100382.47;5057426;28;20036;-80
2023/06/10 10:49:28;;;;;;;10.10;2.80;;;;;;;26.72;64.64;100458.31;5035641;28;19909;-79
2023/06/10 10:51:58;;;;;;;;;;;;;;;26.70;63.11;100246.94;5050505;28;20029;-80
2023/06/10 10:54:35;;;;;;;14.27;2.95;;;;;;;26.78;62.49;100231.81;5052128;28;20308;-79
2023/06/10 10:57:20;;;;;;;11.38;2.85;;;;;;;26.76;63.30;100383.81;5048190;28;20102;-79
2023/06/10 10:59:52;;;;;;;10.52;2.67;;;;;;;27.21;62.49;100369.13;5035735;28;20048;-79
2023/06/10 11:02:53;;;;;;;9.05;2.42;;;;;;;26.50;61.74;100045.31;5052237;28;20029;-79
2023/06/10 11:05:41;;;;;;;7.05;2.85;;;;;;;26.61;61.37;100114.50;4955540;28;20241;-80
2023/06/10 11:08:12;;;;;;;11.57;3.05;;;;;;;26.73;61.41;100179.84;4987501;28;20559;-79
2023/06/10 11:10:50;;;;;;;13.13;2.67;;;;;;;26.62;60.87;100098.88;4972268;28;20042;-79
2023/06/10 11:13:21;;;;;;;10.73;3.08;;;;;;;26.86;61.60;100222.22;4971901;28;20038;-77
2023/06/10 11:15:49;;;;;;;7.60;2.75;;;;;;;26.51;61.13;100107.16;4959103;28;20205;-79
2023/06/10 11:18:20;;;;;;;7.93;2.58;;;;;;;25.83;60.47;99798.00;4989418;28;20038;-79
2023/06/10 11:20:54;;;;;;;13.23;3.15;;;;;;;26.75;61.46;100273.47;4986466;28;20100;-79